• Join FlightAware (Why Join?)
  • Login
  • US Flag 
12:59AM EDT


 

Airport Tracker/Info


-or-


 

Live Flight TrackerFlight Track Log ✈ CHQ5018 ✈ 25-May-2013 ✈ KMLI - KORD

Flight Track Log - Related Links

Times and Time Zones

All times are in EDT time to prevent confusion due to time zone crossing. See the CHQ5018 flight status page for this flight to view local times or setup timezone preferences in your user account.

Time Position Orientation Groundspeed Altitude Reporting Facility
EDT Latitude Longitude Course Direction KTS MPH feet Rate Location/Type
06:14PM 41.4450 -90.3233 89° East 239 275 7,300  Level Chicago Center
06:15PM 41.4333 -90.3009 90° East  Level FlightAware Approximate
06:15PM 41.4436 -90.2217 91° East 271 312 9,900  Level Chicago Center
06:16PM 41.4333 -90.2345 90° East  Level FlightAware Approximate
06:16PM 41.4414 -90.1031 91° East 316 364 10,900  Level Chicago Center
06:17PM 41.4333 -90.1681 90° East  Level FlightAware Approximate
06:18PM 41.4333 -90.1018 90° East  Level FlightAware Approximate
06:18PM 41.4400 -89.9781 91° East 333 383 11,000  Level Chicago Center
06:19PM 41.4333 -90.0046 90° East  Level FlightAware Approximate
06:19PM 41.4372 -89.8336 91° East 326 375 10,900  Level Chicago Center
06:20PM 41.4347 -89.7036 91° East 343 395 10,900  Level Chicago Center
06:21PM 41.4314 -89.5642 92° East 367 422 10,900  Level Chicago Center
06:22PM 41.4439 -89.4244 83° East 376 433 10,900  Level Chicago Center
06:23PM 41.4592 -89.2897 81° East 372 428 10,900  Level Chicago Center
06:24PM 41.4719 -89.1428 83° East 370 426 10,900  Level Chicago Center
06:25PM 41.4836 -89.0094 83° East 364 419 10,900  Level Chicago Center
06:26PM 41.4961 -88.8789 83° East 359 413 10,900  Level Chicago Center
06:27PM 41.5083 -88.7542 83° East 343 395 11,000  Climbing Chicago Center
06:28PM 41.5389 -88.6344 71° East 350 403 11,000  Level Chicago Center
06:29PM 41.5836 -88.5253 61° Northeast 340 391 11,000 -420 Level Chicago Center
06:30PM 41.6303 -88.4267 58° Northeast 316 364 10,200 -1,320 Descending Chicago Center
06:31PM 41.6839 -88.3494 47° Northeast 288 331 8,400 -1,620 Descending Chicago Center
06:32PM 41.7658 -88.3092 20° North 262 302 7,000 -1,440 Descending Chicago Center
06:33PM 41.8350 -88.2825 16° North 259 298 5,500 -1,320 Descending Chicago Center
06:34PM 41.9036 -88.2547 17° North 259 298 4,300 -780 Descending Chicago Center
06:35PM 41.9500 -88.1983 42° Northeast 252 290 4,000 -300 Descending Chicago Center